Time;durP1;ratioP1;P1;durP2;ratioP2;P2;SDS_P1;SDS_P2;PMS_P1;PMS_P2;Temp;Humidity;BMP_temperature;BMP_pressure;BME280_temperature;BME280_humidity;BME280_pressure;Samples;Min_cycle;Max_cycle;Signal;HPM_P1;HPM_P2
2021/01/26 00:01:36;;;;;;;72.75;36.80;;;-3276.50;94.30;;;;;;4996952;28;20180;-67
2021/01/26 00:04:02;;;;;;;66.80;35.33;;;-3276.60;94.30;;;;;;4997953;28;20439;-67
2021/01/26 00:06:27;;;;;;;71.28;35.97;;;-3276.50;94.20;;;;;;4999804;28;20459;-67
2021/01/26 00:08:53;;;;;;;63.60;34.47;;;-3276.60;94.20;;;;;;5002376;28;20025;-67
2021/01/26 00:11:19;;;;;;;62.67;34.17;;;-3276.60;94.10;;;;;;4998456;28;20025;-67
2021/01/26 00:13:44;;;;;;;56.70;33.70;;;-3276.60;93.80;;;;;;4996555;28;20028;-67
2021/01/26 00:16:10;;;;;;;57.38;31.95;;;-3276.60;93.80;;;;;;4997705;28;20148;-67
2021/01/26 00:18:36;;;;;;;62.17;32.88;;;-3276.60;93.90;;;;;;4996953;28;20114;-67
2021/01/26 00:21:02;;;;;;;53.58;31.45;;;-3276.50;93.90;;;;;;4998610;28;20491;-67
2021/01/26 00:23:28;;;;;;;60.47;32.33;;;-3276.50;94.00;;;;;;4995409;28;20025;-67
2021/01/26 00:25:53;;;;;;;55.33;31.30;;;-3276.50;94.00;;;;;;4995454;28;20029;-67
2021/01/26 00:28:19;;;;;;;56.28;30.90;;;-3276.50;93.90;;;;;;4994339;28;20037;-67
2021/01/26 00:30:45;;;;;;;55.92;30.65;;;-3276.50;94.00;;;;;;4996860;28;20136;-67
2021/01/26 00:33:19;;;;;;;50.65;30.35;;;-3276.60;93.90;;;;;;5010838;28;20034;-67
2021/01/26 00:35:45;;;;;;;50.50;30.02;;;-3276.70;93.90;;;;;;5012055;28;20058;-67
2021/01/26 00:38:11;;;;;;;50.55;28.95;;;-3276.60;93.80;;;;;;5013411;28;20025;-67
2021/01/26 00:40:38;;;;;;;50.85;30.50;;;-3276.60;93.80;;;;;;5011931;28;20026;-67
2021/01/26 00:43:04;;;;;;;50.55;30.20;;;-3276.70;93.80;;;;;;5028657;28;20396;-67
2021/01/26 00:45:30;;;;;;;50.75;28.15;;;-3276.70;93.60;;;;;;5016599;28;20033;-67
2021/01/26 00:47:56;;;;;;;54.67;30.40;;;0.00;93.50;;;;;;5014870;28;20031;-66
2021/01/26 00:50:22;;;;;;;45.00;27.45;;;0.00;93.50;;;;;;5021673;28;20052;-67
2021/01/26 00:52:48;;;;;;;46.55;27.52;;;0.00;93.60;;;;;;5027965;28;20041;-66
2021/01/26 00:55:15;;;;;;;47.70;27.83;;;0.00;93.50;;;;;;5020885;28;20021;-67
2021/01/26 00:57:41;;;;;;;49.78;28.63;;;0.00;93.30;;;;;;5011947;28;20057;-66
2021/01/26 01:00:11;;;;;;;43.78;27.23;;;0.00;93.20;;;;;;5032158;23;20109;-64
2021/01/26 01:02:36;;;;;;;46.65;28.88;;;0.00;93.20;;;;;;5026491;28;20413;-65
2021/01/26 01:05:02;;;;;;;44.10;27.88;;;0.00;93.10;;;;;;5026747;28;20025;-64
2021/01/26 01:07:28;;;;;;;43.85;27.23;;;0.00;93.10;;;;;;5026326;28;20101;-65
2021/01/26 01:09:54;;;;;;;44.65;27.77;;;0.00;93.30;;;;;;5014933;28;20040;-65
2021/01/26 01:12:19;;;;;;;43.20;27.27;;;0.00;93.30;;;;;;5025349;28;20038;-65
2021/01/26 01:14:45;;;;;;;51.80;28.77;;;-3276.70;93.40;;;;;;5033906;28;20028;-65
2021/01/26 01:17:10;;;;;;;45.60;28.30;;;-3276.70;93.40;;;;;;5045830;28;20049;-65
2021/01/26 01:19:36;;;;;;;49.08;28.80;;;-3276.60;93.40;;;;;;5043196;28;20029;-65
2021/01/26 01:22:02;;;;;;;47.47;28.85;;;-3276.50;93.70;;;;;;5044219;28;20029;-65
2021/01/26 01:24:27;;;;;;;46.22;28.35;;;-3276.40;93.80;;;;;;5044107;28;20021;-65
2021/01/26 01:26:53;;;;;;;50.33;28.35;;;-3276.30;93.90;;;;;;5046117;28;20060;-65
2021/01/26 01:29:18;;;;;;;46.08;28.13;;;-3276.20;94.10;;;;;;5045171;28;20430;-65
2021/01/26 01:31:44;;;;;;;40.63;28.15;;;-3276.10;94.20;;;;;;5043203;28;20025;-65
2021/01/26 01:34:09;;;;;;;50.88;29.63;;;-3276.10;94.40;;;;;;5045603;28;20037;-65
2021/01/26 01:36:36;;;;;;;48.60;29.92;;;-3276.00;94.60;;;;;;5040321;28;20055;-65
2021/01/26 01:39:07;;;;;;;55.58;30.55;;;-3276.00;94.80;;;;;;5049637;28;20044;-65
2021/01/26 01:41:34;;;;;;;52.38;31.83;;;-3275.90;94.80;;;;;;5042114;28;20378;-65
2021/01/26 01:44:00;;;;;;;60.67;32.35;;;-3275.80;94.80;;;;;;5033979;28;20029;-66
2021/01/26 01:46:28;;;;;;;63.80;33.40;;;-3275.80;95.10;;;;;;5035696;28;20033;-65
2021/01/26 01:48:57;;;;;;;66.85;35.08;;;-3275.90;95.10;;;;;;5044814;28;20040;-65
2021/01/26 01:51:25;;;;;;;66.47;35.28;;;-3276.00;95.30;;;;;;5045762;28;20469;-65
2021/01/26 01:54:05;;;;;;;69.43;34.80;;;-3276.00;95.30;;;;;;5054538;28;20453;-66
2021/01/26 01:56:38;;;;;;;66.55;34.40;;;-3276.10;95.30;;;;;;5044096;28;20040;-65
2021/01/26 01:59:12;;;;;;;63.67;34.38;;;-3276.20;95.30;;;;;;5052069;28;20492;-64
2021/01/26 02:01:38;;;;;;;58.03;32.95;;;-3276.30;95.20;;;;;;5060357;28;20592;-65
2021/01/26 02:04:10;;;;;;;57.97;32.67;;;-3276.40;95.10;;;;;;5054548;28;20161;-65
2021/01/26 02:06:39;;;;;;;51.80;32.13;;;-3276.40;95.00;;;;;;5048600;28;20426;-65
2021/01/26 02:09:07;;;;;;;54.30;34.42;;;-3276.50;94.90;;;;;;5044700;28;20040;-65
2021/01/26 02:11:32;;;;;;;53.60;32.30;;;-3276.50;94.80;;;;;;5040293;28;20032;-65
2021/01/26 02:13:59;;;;;;;50.42;33.58;;;-3276.60;94.70;;;;;;5047028;28;20032;-65
2021/01/26 02:16:31;;;;;;;49.70;31.67;;;-3276.60;94.50;;;;;;5047885;28;20103;-65
2021/01/26 02:19:21;;;;;;;53.45;30.30;;;-3276.60;94.50;;;;;;5048978;28;20373;-65
2021/01/26 02:22:04;;;;;;;48.05;30.42;;;-3276.70;94.40;;;;;;5030022;28;20029;-65
2021/01/26 02:24:33;;;;;;;54.92;33.13;;;-3276.70;94.50;;;;;;5027995;28;20421;-65
2021/01/26 02:27:17;;;;;;;48.67;30.95;;;-3276.70;94.40;;;;;;5056465;28;20059;-65
2021/01/26 02:30:18;;;;;;;50.50;30.77;;;0.00;94.40;;;;;;5034286;28;20437;-65
2021/01/26 02:33:05;;;;;;;52.72;31.63;;;0.00;94.30;;;;;;5029297;28;20025;-65
2021/01/26 02:36:01;;;;;;;55.15;30.80;;;0.00;94.30;;;;;;5042828;28;20042;-65
2021/01/26 02:38:27;;;;;;;47.40;30.30;;;0.00;94.30;;;;;;5042240;28;20527;-64
2021/01/26 02:41:24;;;;;;;51.08;31.55;;;0.00;94.30;;;;;;5046582;28;20049;-64
2021/01/26 02:44:04;;;;;;;45.63;30.73;;;0.00;94.40;;;;;;5036070;28;20049;-65
2021/01/26 02:46:50;;;;;;;47.55;29.70;;;0.00;94.20;;;;;;5029747;28;20078;-65
2021/01/26 02:49:26;;;;;;;50.33;30.73;;;0.00;94.10;;;;;;5048535;28;20423;-66
2021/01/26 02:52:03;;;;;;;47.63;31.08;;;0.00;94.10;;;;;;5047696;28;20439;-65
2021/01/26 02:54:32;;;;;;;53.40;31.20;;;0.00;94.10;;;;;;5038502;28;20604;-66
2021/01/26 02:57:23;;;;;;;54.30;31.00;;;0.00;94.10;;;;;;5055371;28;20120;-65
2021/01/26 02:59:55;;;;;;;46.63;29.20;;;0.00;94.10;;;;;;5044530;28;20175;-64
2021/01/26 03:02:40;;;;;;;54.42;31.48;;;0.00;94.10;;;;;;5037000;28;20469;-66
2021/01/26 03:05:08;;;;;;;47.00;29.23;;;0.00;94.20;;;;;;5056294;28;20074;-65
2021/01/26 03:07:40;;;;;;;50.35;29.40;;;0.00;94.10;;;;;;5048540;28;20170;-65
2021/01/26 03:10:14;;;;;;;45.38;30.08;;;0.00;94.00;;;;;;5043337;28;20054;-67
2021/01/26 03:12:45;;;;;;;47.38;30.42;;;0.00;94.00;;;;;;5046086;28;20025;-65
2021/01/26 03:15:18;;;;;;;45.70;30.67;;;0.00;94.10;;;;;;5030040;28;20705;-66
2021/01/26 03:17:47;;;;;;;46.90;30.45;;;0.00;94.20;;;;;;5040826;28;20059;-65
2021/01/26 03:20:34;;;;;;;47.08;29.90;;;0.00;94.10;;;;;;5029223;28;20099;-66
2021/01/26 03:23:08;;;;;;;47.30;31.38;;;0.00;94.20;;;;;;5042791;28;20128;-65
2021/01/26 03:25:39;;;;;;;48.80;30.02;;;0.00;94.10;;;;;;5045366;28;20099;-65
2021/01/26 03:28:07;;;;;;;45.83;30.55;;;0.00;94.10;;;;;;5048082;28;20521;-65
2021/01/26 03:30:40;;;;;;;46.22;30.60;;;0.00;94.10;;;;;;5046454;28;20386;-65
2021/01/26 03:33:11;;;;;;;45.67;30.15;;;0.00;94.10;;;;;;5047356;28;20382;-65
2021/01/26 03:35:36;;;;;;;;;;;0.00;94.10;;;;;;5039093;28;20094;-65
2021/01/26 03:38:11;;;;;;;46.95;29.17;;;0.00;94.10;;;;;;5051419;28;19987;-65
2021/01/26 03:40:37;;;;;;;48.50;30.67;;;0.00;94.20;;;;;;5047781;28;20108;-65
2021/01/26 03:43:04;;;;;;;48.28;30.23;;;0.00;94.10;;;;;;5041578;28;20456;-65
2021/01/26 03:45:29;;;;;;;51.35;31.00;;;0.10;94.10;;;;;;5044871;28;20033;-65
2021/01/26 03:48:07;;;;;;;50.75;32.03;;;0.10;94.10;;;;;;5032967;28;20354;-65
2021/01/26 03:51:05;;;;;;;50.35;31.65;;;0.00;94.10;;;;;;5044565;28;20116;-65
2021/01/26 03:53:57;;;;;;;50.40;31.48;;;0.10;94.10;;;;;;4999052;28;20110;-65
2021/01/26 03:56:52;;;;;;;54.63;31.90;;;0.10;94.10;;;;;;5046097;28;20058;-65
2021/01/26 03:59:32;;;;;;;49.83;31.42;;;0.10;94.10;;;;;;5032219;28;20037;-64
2021/01/26 04:02:07;;;;;;;51.38;31.58;;;0.10;94.20;;;;;;5042346;28;20128;-65
2021/01/26 04:04:58;;;;;;;46.58;30.88;;;0.00;94.20;;;;;;5043462;28;20350;-65
2021/01/26 04:07:40;;;;;;;47.08;32.20;;;0.10;94.20;;;;;;5027663;28;20135;-65
2021/01/26 04:10:19;;;;;;;53.65;32.97;;;0.10;94.20;;;;;;5039880;28;20029;-63
2021/01/26 04:12:47;;;;;;;55.75;34.17;;;0.10;94.20;;;;;;5034901;28;20122;-65
2021/01/26 04:15:22;;;;;;;49.20;32.13;;;0.10;94.20;;;;;;5043031;28;20036;-65
2021/01/26 04:17:51;;;;;;;54.85;33.67;;;0.10;94.30;;;;;;5043416;28;20515;-65
2021/01/26 04:20:29;;;;;;;51.20;32.03;;;0.10;94.30;;;;;;5045486;28;20052;-65
2021/01/26 04:22:57;;;;;;;50.00;31.88;;;0.10;94.30;;;;;;5034336;28;20039;-65
2021/01/26 04:25:39;;;;;;;48.17;30.17;;;0.10;94.20;;;;;;5048154;28;20029;-65
2021/01/26 04:28:09;;;;;;;48.10;29.77;;;0.10;94.20;;;;;;5047048;28;20032;-65
2021/01/26 04:30:34;;;;;;;51.63;33.80;;;0.10;94.20;;;;;;5043779;28;20512;-65
2021/01/26 04:33:09;;;;;;;48.30;31.50;;;0.10;94.20;;;;;;5034096;28;20037;-65
2021/01/26 04:35:35;;;;;;;53.28;33.15;;;0.20;94.20;;;;;;5038377;28;20117;-65
2021/01/26 04:38:01;;;;;;;55.95;33.15;;;0.20;94.10;;;;;;5046723;28;20441;-65
2021/01/26 04:40:29;;;;;;;51.25;32.95;;;0.20;94.20;;;;;;5044956;28;20385;-64
2021/01/26 04:43:11;;;;;;;54.05;33.22;;;0.20;94.20;;;;;;5033614;28;20072;-65
2021/01/26 04:46:05;;;;;;;52.30;33.33;;;0.20;94.20;;;;;;5042293;28;20060;-65
2021/01/26 04:48:51;;;;;;;52.70;34.13;;;0.20;94.30;;;;;;5036857;28;20481;-65
2021/01/26 04:51:22;;;;;;;53.92;34.17;;;0.20;94.40;;;;;;5045200;28;20025;-64
2021/01/26 04:53:54;;;;;;;;;;;0.20;94.30;;;;;;5057459;28;20028;-65
2021/01/26 04:56:48;;;;;;;53.70;32.50;;;0.20;94.30;;;;;;5037414;28;20022;-65
2021/01/26 04:59:37;;;;;;;52.60;31.75;;;0.30;94.40;;;;;;5045277;28;20028;-65
2021/01/26 05:02:32;;;;;;;55.28;32.30;;;0.30;94.40;;;;;;5043383;28;20041;-65
2021/01/26 05:05:02;;;;;;;55.30;34.80;;;0.20;94.30;;;;;;5052817;28;20029;-64
2021/01/26 05:07:44;;;;;;;52.30;33.13;;;0.20;94.30;;;;;;5036055;28;20033;-65
2021/01/26 05:10:18;;;;;;;;;;;0.20;94.30;;;;;;5041032;28;20063;-65
2021/01/26 05:12:53;;;;;;;50.55;31.25;;;0.30;94.30;;;;;;5044474;28;19988;-65
2021/01/26 05:15:23;;;;;;;53.15;32.72;;;0.30;94.30;;;;;;5044984;28;20130;-65
2021/01/26 05:18:05;;;;;;;56.75;35.20;;;0.30;94.40;;;;;;5033230;28;20029;-65
2021/01/26 05:20:40;;;;;;;59.90;35.10;;;0.20;94.40;;;;;;5036379;28;20057;-65
2021/01/26 05:23:15;;;;;;;56.30;35.30;;;0.20;94.40;;;;;;5045871;28;20029;-65
2021/01/26 05:25:41;;;;;;;56.67;34.17;;;0.20;94.40;;;;;;5042247;28;20235;-65
2021/01/26 05:28:07;;;;;;;57.53;33.42;;;0.20;94.30;;;;;;5046181;28;20060;-65
2021/01/26 05:30:35;;;;;;;57.78;34.40;;;0.20;94.30;;;;;;5043529;28;20029;-65
2021/01/26 05:33:14;;;;;;;56.63;33.38;;;0.20;94.20;;;;;;5041949;28;20111;-65
2021/01/26 05:35:43;;;;;;;58.53;35.75;;;0.20;94.20;;;;;;5036300;28;20017;-65
2021/01/26 05:38:09;;;;;;;56.97;34.97;;;0.20;94.20;;;;;;5058186;28;20115;-65
2021/01/26 05:40:39;;;;;;;57.72;35.67;;;0.30;94.20;;;;;;5045486;28;20114;-64
2021/01/26 05:43:07;;;;;;;57.13;34.33;;;0.30;94.40;;;;;;5026482;28;20457;-65
2021/01/26 05:45:35;;;;;;;53.78;34.90;;;0.20;94.40;;;;;;5030117;28;20248;-64
2021/01/26 05:48:09;;;;;;;59.15;35.95;;;0.30;94.50;;;;;;5039955;28;20408;-65
2021/01/26 05:50:36;;;;;;;59.22;36.65;;;0.20;94.50;;;;;;5045098;28;20253;-63
2021/01/26 05:53:18;;;;;;;57.65;37.50;;;0.30;94.50;;;;;;5039756;28;20022;-65
2021/01/26 05:55:57;;;;;;;63.03;35.45;;;0.30;94.60;;;;;;5038560;28;20492;-65
2021/01/26 05:58:26;;;;;;;61.90;35.88;;;0.30;94.70;;;;;;5039263;28;20032;-65
2021/01/26 06:00:57;;;;;;;60.53;37.50;;;0.20;94.60;;;;;;5034585;28;20045;-63
2021/01/26 06:03:23;;;;;;;56.97;36.17;;;0.30;94.60;;;;;;5020276;28;20161;-65
2021/01/26 06:06:04;;;;;;;58.10;36.22;;;0.30;94.60;;;;;;5019286;28;20053;-64
2021/01/26 06:08:31;;;;;;;58.22;36.13;;;0.30;94.50;;;;;;5024231;28;20639;-65
2021/01/26 06:10:57;;;;;;;57.13;35.17;;;0.30;94.60;;;;;;5018551;28;20051;-64
2021/01/26 06:13:28;;;;;;;57.85;35.20;;;0.30;94.70;;;;;;5018592;28;20159;-65
2021/01/26 06:16:07;;;;;;;;;;;0.30;94.60;;;;;;5017225;28;20074;-65
2021/01/26 06:18:34;;;;;;;60.95;35.20;;;0.30;94.70;;;;;;5018666;28;20118;-64
2021/01/26 06:21:07;;;;;;;60.13;35.92;;;0.20;94.70;;;;;;5019529;28;20052;-65
2021/01/26 06:23:35;;;;;;;55.35;34.28;;;0.30;94.80;;;;;;5018280;28;20434;-64
2021/01/26 06:26:04;;;;;;;58.53;36.47;;;0.30;94.80;;;;;;5022933;28;20028;-65
2021/01/26 06:28:55;;;;;;;56.08;35.47;;;0.30;94.80;;;;;;5043317;28;20044;-65
2021/01/26 06:31:32;;;;;;;55.53;34.70;;;0.30;94.70;;;;;;5042613;28;20089;-65
2021/01/26 06:34:05;;;;;;;57.95;34.88;;;0.30;94.80;;;;;;5045590;28;20178;-65
2021/01/26 06:36:47;;;;;;;57.47;36.17;;;0.30;94.90;;;;;;5027087;28;20105;-65
2021/01/26 06:39:34;;;;;;;60.78;36.03;;;0.20;94.80;;;;;;5035331;28;20555;-65
2021/01/26 06:42:34;;;;;;;56.95;34.33;;;0.30;94.80;;;;;;5040971;28;20412;-64
2021/01/26 06:45:05;;;;;;;55.28;35.15;;;0.30;94.80;;;;;;5044716;28;20063;-65
2021/01/26 06:47:43;;;;;;;59.35;36.28;;;0.20;94.80;;;;;;5045328;28;20139;-65
2021/01/26 06:50:36;;;;;;;61.53;36.92;;;0.30;95.00;;;;;;5046326;28;20037;-63
2021/01/26 06:53:26;;;;;;;53.05;34.30;;;0.30;94.90;;;;;;5036859;28;20052;-64
2021/01/26 06:56:03;;;;;;;56.17;34.65;;;0.20;94.80;;;;;;5031250;28;20021;-64
2021/01/26 06:58:50;;;;;;;57.10;34.65;;;0.20;94.80;;;;;;5040788;28;20462;-65
2021/01/26 07:01:34;;;;;;;55.35;34.40;;;0.20;94.80;;;;;;5042625;22;20148;-65
2021/01/26 07:04:08;;;;;;;51.25;32.60;;;0.20;94.80;;;;;;5011115;28;20030;-65
2021/01/26 07:06:49;;;;;;;54.72;34.13;;;0.20;94.70;;;;;;5007264;28;20034;-65
2021/01/26 07:09:18;;;;;;;56.63;34.25;;;0.20;94.80;;;;;;5003103;28;20053;-65
2021/01/26 07:12:19;;;;;;;55.95;35.70;;;0.10;94.80;;;;;;5006361;28;20038;-65
2021/01/26 07:15:02;;;;;;;56.30;34.38;;;0.20;94.90;;;;;;5014198;28;20059;-66
2021/01/26 07:17:56;;;;;;;54.97;33.78;;;0.20;94.80;;;;;;5004197;28;20056;-66
2021/01/26 07:20:33;;;;;;;53.13;33.25;;;0.10;94.70;;;;;;5002179;28;20092;-66
2021/01/26 07:23:05;;;;;;;55.45;34.70;;;0.10;94.70;;;;;;5006836;28;20101;-66
2021/01/26 07:25:51;;;;;;;57.28;35.08;;;0.10;94.70;;;;;;5006772;28;20420;-66
2021/01/26 07:28:45;;;;;;;59.38;35.08;;;0.10;94.80;;;;;;5003440;28;20041;-66
2021/01/26 07:31:20;;;;;;;53.88;33.55;;;0.10;94.90;;;;;;5000520;28;20632;-65
2021/01/26 07:34:24;;;;;;;57.40;35.25;;;0.00;94.90;;;;;;5009537;28;20026;-66
2021/01/26 07:37:18;;;;;;;57.10;35.15;;;0.10;94.90;;;;;;4968322;28;20030;-66
2021/01/26 07:39:55;;;;;;;57.55;35.00;;;0.10;94.90;;;;;;5001683;28;20567;-66
2021/01/26 07:42:31;;;;;;;59.90;35.80;;;0.00;95.00;;;;;;5007253;28;20036;-66
2021/01/26 07:45:05;;;;;;;65.38;36.72;;;0.00;95.00;;;;;;5007735;28;20107;-66
2021/01/26 07:47:36;;;;;;;61.47;35.78;;;0.00;95.00;;;;;;5001931;28;20030;-66
2021/01/26 07:50:07;;;;;;;;;;;-3276.70;95.10;;;;;;5007585;28;20729;-65
2021/01/26 07:52:35;;;;;;;62.22;34.45;;;-3276.70;95.20;;;;;;5007405;28;19922;-66
2021/01/26 07:55:21;;;;;;;59.33;36.00;;;-3276.60;95.30;;;;;;5008136;28;20488;-66
2021/01/26 07:58:00;;;;;;;66.25;37.97;;;-3276.50;95.50;;;;;;5004106;28;20018;-66
2021/01/26 08:00:29;;;;;;;81.00;41.15;;;-3276.40;95.60;;;;;;5005979;28;20407;-66
2021/01/26 08:02:58;;;;;;;79.53;40.42;;;-3276.40;95.60;;;;;;5007100;28;20042;-67
2021/01/26 08:05:54;;;;;;;73.25;39.55;;;-3276.40;95.70;;;;;;5007772;28;20061;-66
2021/01/26 08:08:30;;;;;;;73.90;40.80;;;-3276.30;95.80;;;;;;4988236;28;20045;-65
2021/01/26 08:11:08;;;;;;;82.50;41.83;;;-3276.30;95.80;;;;;;5008513;28;20068;-66
2021/01/26 08:13:35;;;;;;;85.78;42.67;;;-3276.30;95.90;;;;;;5006588;28;20030;-65
2021/01/26 08:16:29;;;;;;;80.65;43.33;;;-3276.30;95.90;;;;;;5006159;28;20022;-66
2021/01/26 08:18:56;;;;;;;89.18;43.53;;;-3276.30;95.90;;;;;;5003119;28;20137;-65
2021/01/26 08:21:39;;;;;;;100.90;43.72;;;-3276.30;96.00;;;;;;5008632;28;20526;-65
2021/01/26 08:24:22;;;;;;;100.93;46.75;;;-3276.30;96.10;;;;;;4999315;28;20056;-66
2021/01/26 08:26:54;;;;;;;107.55;46.65;;;-3276.40;96.00;;;;;;5008277;28;20026;-66
2021/01/26 08:29:44;;;;;;;95.95;47.38;;;-3276.50;96.10;;;;;;5006999;28;20029;-66
2021/01/26 08:32:41;;;;;;;97.97;46.08;;;-3276.60;96.00;;;;;;4997562;28;20083;-65
2021/01/26 08:35:13;;;;;;;83.43;44.20;;;-3276.70;95.90;;;;;;5007949;28;20025;-64
2021/01/26 08:37:41;;;;;;;78.97;44.28;;;0.00;95.80;;;;;;5007021;28;20087;-65
2021/01/26 08:40:15;;;;;;;77.93;41.03;;;0.00;95.60;;;;;;5004118;28;20018;-65
2021/01/26 08:42:40;;;;;;;64.03;39.72;;;0.00;95.50;;;;;;5000368;28;20068;-65
2021/01/26 08:45:14;;;;;;;69.80;39.78;;;0.10;95.40;;;;;;5002687;28;20487;-65
2021/01/26 08:47:59;;;;;;;64.20;38.17;;;0.00;95.20;;;;;;5006004;28;20042;-65
2021/01/26 08:50:28;;;;;;;63.72;37.38;;;0.00;95.00;;;;;;5005624;28;20108;-65
2021/01/26 08:53:12;;;;;;;67.28;39.17;;;0.00;95.00;;;;;;5009812;28;20033;-65
2021/01/26 08:55:40;;;;;;;59.00;35.72;;;0.10;95.00;;;;;;5003553;28;20081;-65
2021/01/26 08:58:10;;;;;;;56.75;36.92;;;0.10;94.90;;;;;;5007025;28;20403;-65
2021/01/26 09:00:42;;;;;;;64.45;36.88;;;0.10;94.80;;;;;;5007310;28;20033;-65
2021/01/26 09:03:28;;;;;;;58.50;36.38;;;0.20;94.70;;;;;;5001488;28;20058;-65
2021/01/26 09:05:57;;;;;;;55.97;35.70;;;0.20;94.50;;;;;;5012695;28;20083;-65
2021/01/26 09:08:41;;;;;;;58.90;35.85;;;0.30;94.50;;;;;;5006023;28;20034;-65
2021/01/26 09:11:30;;;;;;;58.55;34.50;;;0.40;94.30;;;;;;5005860;28;20034;-64
2021/01/26 09:14:23;;;;;;;56.70;33.90;;;0.40;94.20;;;;;;5006485;28;20464;-65
2021/01/26 09:17:29;;;;;;;53.20;33.88;;;0.40;94.10;;;;;;5006224;28;20282;-65
2021/01/26 09:20:06;;;;;;;51.45;34.70;;;0.40;94.00;;;;;;4993724;28;20561;-65
2021/01/26 09:22:32;;;;;;;49.72;34.08;;;0.40;94.20;;;;;;5011768;28;20030;-66
2021/01/26 09:25:03;;;;;;;51.25;33.72;;;0.40;94.10;;;;;;5013351;28;20022;-66
2021/01/26 09:27:30;;;;;;;55.40;34.65;;;0.50;94.20;;;;;;5009229;28;20022;-65
2021/01/26 09:30:14;;;;;;;60.30;36.17;;;0.50;93.90;;;;;;5008066;28;20030;-66
2021/01/26 09:32:45;;;;;;;57.00;35.45;;;0.60;94.00;;;;;;5003306;28;20091;-65
2021/01/26 09:35:25;;;;;;;54.22;35.28;;;0.70;94.00;;;;;;5004614;28;20022;-65
2021/01/26 09:38:12;;;;;;;54.40;35.38;;;0.80;93.70;;;;;;5006318;28;20042;-66
2021/01/26 09:40:40;;;;;;;56.10;35.03;;;0.80;93.60;;;;;;5006101;28;20083;-65
2021/01/26 09:43:20;;;;;;;59.88;34.65;;;0.80;93.30;;;;;;5001320;28;20037;-66
2021/01/26 09:45:53;;;;;;;52.72;33.75;;;1.00;93.50;;;;;;5005259;28;20039;-66
2021/01/26 09:48:36;;;;;;;56.75;36.40;;;1.00;93.00;;;;;;5004187;28;20038;-65
2021/01/26 09:51:09;;;;;;;48.97;34.30;;;1.10;92.80;;;;;;5002371;28;20057;-65
2021/01/26 09:53:35;;;;;;;52.90;33.97;;;1.10;92.50;;;;;;5006211;28;20274;-65
2021/01/26 09:56:03;;;;;;;55.83;34.30;;;1.10;92.50;;;;;;5007290;28;20221;-65
2021/01/26 09:58:28;;;;;;;57.47;34.83;;;1.20;92.40;;;;;;5007142;28;20034;-66
2021/01/26 10:00:55;;;;;;;49.75;32.40;;;1.30;92.40;;;;;;5010858;28;20506;-65
2021/01/26 10:03:23;;;;;;;47.85;33.03;;;1.50;92.10;;;;;;5004520;28;20094;-66
2021/01/26 10:05:52;;;;;;;49.60;32.13;;;1.70;91.50;;;;;;5009687;28;20065;-66
2021/01/26 10:08:20;;;;;;;46.78;31.42;;;1.80;90.80;;;;;;5001754;28;20033;-66
2021/01/26 10:10:46;;;;;;;42.30;28.27;;;2.00;90.60;;;;;;5007526;28;20042;-66
2021/01/26 10:13:27;;;;;;;44.35;29.65;;;2.10;89.70;;;;;;5007003;28;20033;-66
2021/01/26 10:15:54;;;;;;;41.25;27.90;;;2.00;90.00;;;;;;5011969;28;20041;-66
2021/01/26 10:18:22;;;;;;;44.17;28.00;;;2.00;90.50;;;;;;5012211;28;20077;-66
2021/01/26 10:20:53;;;;;;;43.88;26.83;;;1.90;90.40;;;;;;5000688;28;20107;-66
2021/01/26 10:23:33;;;;;;;44.83;27.42;;;1.90;90.60;;;;;;5008331;28;20053;-66
2021/01/26 10:26:11;;;;;;;36.75;25.88;;;1.70;90.80;;;;;;5015867;28;20407;-66
2021/01/26 10:28:55;;;;;;;40.35;26.92;;;1.60;91.10;;;;;;5006551;28;20128;-66
2021/01/26 10:31:21;;;;;;;40.25;26.20;;;1.90;91.10;;;;;;5002577;28;20033;-66
2021/01/26 10:33:46;;;;;;;41.97;27.40;;;1.80;90.50;;;;;;5010488;28;20383;-67
2021/01/26 10:36:32;;;;;;;39.60;26.30;;;1.90;91.00;;;;;;5007258;28;20064;-66
2021/01/26 10:39:20;;;;;;;39.70;26.00;;;2.20;90.30;;;;;;5007476;28;20026;-65
2021/01/26 10:41:46;;;;;;;37.85;25.33;;;2.20;89.20;;;;;;5000666;28;20033;-66
2021/01/26 10:44:14;;;;;;;39.75;25.23;;;2.20;89.40;;;;;;5007736;28;20030;-66
2021/01/26 10:46:43;;;;;;;40.83;27.00;;;2.40;89.10;;;;;;5019489;28;20116;-66
2021/01/26 10:49:15;;;;;;;42.22;24.88;;;2.60;89.10;;;;;;5007813;28;20042;-66
2021/01/26 10:51:42;;;;;;;38.75;25.95;;;2.40;88.70;;;;;;5002603;28;20514;-66
2021/01/26 10:54:09;;;;;;;37.17;25.20;;;2.50;88.70;;;;;;5008479;28;20543;-66
2021/01/26 10:56:35;;;;;;;34.67;22.38;;;2.60;88.30;;;;;;5010075;28;20073;-66
2021/01/26 10:59:01;;;;;;;34.03;22.13;;;2.70;88.00;;;;;;5007039;28;20069;-64
2021/01/26 11:01:27;;;;;;;32.78;20.77;;;2.60;87.60;;;;;;5010576;28;20032;-66
2021/01/26 11:03:53;;;;;;;30.88;21.35;;;2.60;88.10;;;;;;5007164;28;20044;-65
2021/01/26 11:06:21;;;;;;;31.45;21.58;;;2.50;88.10;;;;;;5017194;28;20022;-66
2021/01/26 11:08:47;;;;;;;29.08;19.30;;;2.60;88.10;;;;;;5006528;28;20468;-66
2021/01/26 11:11:18;;;;;;;28.00;20.10;;;2.70;87.70;;;;;;5005323;28;20038;-66
2021/01/26 11:13:44;;;;;;;31.08;20.30;;;2.90;87.20;;;;;;5015885;28;20034;-66
2021/01/26 11:16:10;;;;;;;25.90;18.00;;;3.00;86.90;;;;;;5014956;28;20026;-66
2021/01/26 11:18:36;;;;;;;26.30;19.25;;;2.90;86.40;;;;;;5005693;28;20502;-66
2021/01/26 11:21:02;;;;;;;24.58;17.42;;;3.00;86.80;;;;;;5013181;28;20045;-65
2021/01/26 11:23:28;;;;;;;26.50;17.35;;;3.00;85.90;;;;;;5005625;28;20030;-65
2021/01/26 11:25:54;;;;;;;24.08;16.73;;;3.20;86.30;;;;;;5007093;28;20022;-66
2021/01/26 11:28:19;;;;;;;21.33;14.63;;;3.30;85.80;;;;;;5009243;28;20067;-66
2021/01/26 11:30:46;;;;;;;21.85;15.48;;;3.30;85.20;;;;;;5011076;28;20060;-65
2021/01/26 11:33:12;;;;;;;25.75;16.67;;;3.30;85.30;;;;;;4997907;28;20030;-65
2021/01/26 11:35:38;;;;;;;24.20;15.18;;;3.40;85.60;;;;;;4996769;28;20023;-65
2021/01/26 11:38:04;;;;;;;21.30;14.25;;;3.40;85.20;;;;;;5000141;28;20105;-66
2021/01/26 11:40:30;;;;;;;24.98;13.90;;;3.30;85.00;;;;;;5006625;28;20487;-66
2021/01/26 11:42:56;;;;;;;20.13;13.52;;;3.20;85.50;;;;;;5007237;28;20057;-66
2021/01/26 11:45:27;;;;;;;20.75;14.00;;;3.20;85.30;;;;;;5010801;28;20034;-66
2021/01/26 11:47:53;;;;;;;22.17;14.80;;;3.20;85.70;;;;;;5004795;28;20026;-66
2021/01/26 11:50:19;;;;;;;23.48;13.85;;;3.30;86.30;;;;;;5009689;28;20038;-66
2021/01/26 11:52:45;;;;;;;23.17;14.63;;;3.20;86.30;;;;;;5003012;28;20571;-66
2021/01/26 11:55:15;;;;;;;24.23;13.77;;;3.70;85.00;;;;;;5007145;28;20033;-66
2021/01/26 11:57:42;;;;;;;21.73;14.02;;;4.00;84.20;;;;;;5004973;28;20041;-65
2021/01/26 12:00:09;;;;;;;17.73;11.30;;;4.10;83.20;;;;;;5002890;28;20490;-66
2021/01/26 12:02:35;;;;;;;17.40;10.82;;;4.10;82.70;;;;;;4992682;28;20042;-65
2021/01/26 12:05:02;;;;;;;15.57;10.02;;;4.30;82.70;;;;;;5009505;28;20380;-65
2021/01/26 12:07:28;;;;;;;19.63;11.80;;;4.00;83.00;;;;;;5009101;28;20327;-65
2021/01/26 12:09:54;;;;;;;19.05;11.90;;;4.10;83.40;;;;;;5006085;28;20217;-66
2021/01/26 12:12:19;;;;;;;20.02;12.57;;;4.40;83.30;;;;;;5006910;28;20080;-66
2021/01/26 12:14:45;;;;;;;19.95;12.05;;;4.50;82.50;;;;;;5013350;28;20030;-66
2021/01/26 12:17:10;;;;;;;17.13;12.25;;;4.60;82.00;;;;;;5017554;28;20471;-66
2021/01/26 12:19:36;;;;;;;16.90;11.32;;;5.00;82.20;;;;;;5005444;28;20034;-66
2021/01/26 12:22:01;;;;;;;21.02;11.50;;;5.00;80.80;;;;;;5000681;28;20513;-66
2021/01/26 12:24:27;;;;;;;17.60;11.60;;;4.80;81.00;;;;;;5006645;28;20407;-67
2021/01/26 12:26:54;;;;;;;17.05;10.93;;;4.70;82.00;;;;;;5015708;28;20030;-67
2021/01/26 12:29:19;;;;;;;17.58;10.93;;;4.60;81.80;;;;;;5002440;28;20026;-66
2021/01/26 12:31:45;;;;;;;18.92;10.77;;;4.50;82.40;;;;;;4999041;28;20030;-66
2021/01/26 12:34:11;;;;;;;17.15;11.27;;;4.40;82.90;;;;;;5002217;28;20107;-66
2021/01/26 12:36:37;;;;;;;13.32;8.52;;;4.10;83.70;;;;;;5009781;28;20030;-66
2021/01/26 12:39:03;;;;;;;17.05;10.10;;;4.00;83.10;;;;;;5007287;28;20438;-67
2021/01/26 12:41:29;;;;;;;16.02;10.20;;;4.10;83.40;;;;;;5006526;28;20060;-67
2021/01/26 12:43:55;;;;;;;18.45;10.35;;;4.60;82.50;;;;;;5001388;28;20022;-66
2021/01/26 12:46:20;;;;;;;16.15;10.13;;;4.80;81.00;;;;;;5009178;28;20034;-67
2021/01/26 12:48:46;;;;;;;17.83;10.45;;;4.90;80.60;;;;;;5008931;28;20037;-66
2021/01/26 12:51:11;;;;;;;16.10;8.85;;;5.40;79.70;;;;;;5008904;28;20104;-67
2021/01/26 12:53:37;;;;;;;17.48;9.63;;;5.60;77.80;;;;;;4999311;28;20487;-67
2021/01/26 12:56:03;;;;;;;12.80;8.52;;;6.10;78.40;;;;;;5009085;28;20100;-67
2021/01/26 12:58:29;;;;;;;14.18;8.63;;;6.20;76.20;;;;;;5002957;28;20172;-67
2021/01/26 13:00:54;;;;;;;13.13;8.45;;;6.10;76.70;;;;;;5008708;28;20557;-66